createdAt,value
2018-05-29T00:00:13.950Z,6.90
2018-05-29T00:01:14.179Z,7.80
2018-05-29T00:02:14.413Z,7.10
2018-05-29T00:03:14.650Z,6.80
2018-05-29T00:04:14.874Z,7.80
2018-05-29T00:05:15.111Z,7.90
2018-05-29T00:06:15.336Z,7.50
2018-05-29T00:07:15.573Z,7.20
2018-05-29T00:08:15.817Z,7.60
2018-05-29T00:09:16.038Z,7.20
2018-05-29T00:10:16.326Z,7.80
2018-05-29T00:11:16.500Z,8.00
2018-05-29T00:12:16.731Z,7.70
2018-05-29T00:13:16.972Z,7.80
2018-05-29T00:14:17.203Z,8.40
2018-05-29T00:15:17.425Z,8.80
2018-05-29T00:16:17.654Z,8.00
2018-05-29T00:17:17.886Z,7.90
2018-05-29T00:18:18.114Z,7.90
2018-05-29T00:19:18.355Z,8.30
2018-05-29T00:20:18.579Z,6.70
2018-05-29T00:21:18.810Z,7.60
2018-05-29T00:22:19.048Z,8.50
2018-05-29T00:23:19.280Z,7.10
2018-05-29T00:24:19.510Z,7.10
2018-05-29T00:25:19.741Z,7.50
2018-05-29T00:26:19.971Z,7.20
2018-05-29T00:27:20.207Z,6.90
2018-05-29T00:28:20.447Z,7.10
2018-05-29T00:29:20.671Z,7.20
2018-05-29T00:30:20.904Z,6.70
2018-05-29T00:31:21.130Z,6.80
2018-05-29T00:32:21.365Z,7.00
2018-05-29T00:33:21.594Z,7.60
2018-05-29T00:34:21.832Z,7.70
2018-05-29T00:35:22.070Z,7.40
2018-05-29T00:36:22.297Z,7.70
2018-05-29T00:37:22.531Z,7.40
2018-05-29T00:38:22.769Z,6.80
2018-05-29T00:39:22.989Z,6.80
2018-05-29T00:40:23.227Z,6.60
2018-05-29T00:41:23.468Z,6.80
2018-05-29T00:42:23.699Z,7.40
2018-05-29T00:43:23.928Z,7.60
2018-05-29T00:44:24.164Z,7.30
2018-05-29T00:45:24.396Z,8.00
2018-05-29T00:46:24.629Z,7.20
2018-05-29T00:47:24.864Z,7.50
2018-05-29T00:48:25.094Z,8.00
2018-05-29T00:49:25.315Z,8.30
2018-05-29T00:50:25.545Z,8.10
2018-05-29T00:51:25.776Z,8.20
2018-05-29T00:52:26.009Z,8.00
2018-05-29T00:53:26.248Z,8.50
2018-05-29T00:54:26.475Z,8.30
2018-05-29T00:55:26.707Z,8.20
2018-05-29T00:56:26.941Z,8.70
2018-05-29T00:57:27.172Z,8.30
2018-05-29T00:58:27.406Z,7.90
2018-05-29T00:59:27.644Z,8.30
2018-05-29T01:00:27.873Z,8.30
2018-05-29T01:01:28.102Z,7.80
2018-05-29T01:02:28.333Z,9.50
2018-05-29T01:03:28.566Z,9.00
2018-05-29T01:04:28.803Z,10.10
2018-05-29T01:05:29.031Z,9.20
2018-05-29T01:06:29.265Z,10.00
2018-05-29T01:07:29.497Z,8.20
2018-05-29T01:08:29.729Z,8.60
2018-05-29T01:09:29.961Z,8.70
2018-05-29T01:10:30.199Z,9.50
2018-05-29T01:11:30.431Z,9.00
2018-05-29T01:12:30.673Z,10.00
2018-05-29T01:13:30.891Z,9.70
2018-05-29T01:14:31.125Z,9.00
2018-05-29T01:15:31.358Z,8.80
2018-05-29T01:16:31.588Z,9.10
2018-05-29T01:17:31.823Z,9.10
2018-05-29T01:18:32.049Z,8.40
2018-05-29T01:19:32.283Z,9.00
2018-05-29T01:20:32.516Z,8.20
2018-05-29T01:21:32.749Z,8.10
2018-05-29T01:22:32.991Z,8.10
2018-05-29T01:23:33.200Z,8.20
2018-05-29T01:24:33.449Z,8.80
2018-05-29T01:25:33.682Z,8.80
2018-05-29T01:26:33.914Z,8.20
2018-05-29T01:27:34.144Z,7.20
2018-05-29T01:28:34.374Z,7.60
2018-05-29T01:29:34.601Z,8.10
2018-05-29T01:30:34.829Z,6.90
2018-05-29T01:31:35.071Z,7.90
2018-05-29T01:32:35.309Z,7.60
2018-05-29T01:33:35.527Z,7.80
2018-05-29T01:34:35.768Z,7.80
2018-05-29T01:35:36.032Z,7.60
2018-05-29T01:36:36.245Z,7.50
2018-05-29T01:37:36.457Z,6.80
2018-05-29T01:38:36.682Z,8.20
2018-05-29T01:39:36.924Z,7.10
2018-05-29T01:40:37.151Z,7.90
2018-05-29T01:41:37.385Z,8.00
2018-05-29T01:42:37.616Z,7.80
2018-05-29T01:43:37.855Z,7.60
2018-05-29T01:44:38.086Z,8.30
2018-05-29T01:45:38.316Z,7.50
2018-05-29T01:46:38.554Z,8.50
2018-05-29T01:47:38.777Z,8.40
2018-05-29T01:48:39.015Z,8.50
2018-05-29T01:49:39.244Z,8.70
2018-05-29T01:50:39.469Z,8.70
2018-05-29T01:51:39.707Z,8.60
2018-05-29T01:52:39.939Z,8.00
2018-05-29T01:53:40.169Z,8.30
2018-05-29T01:54:40.400Z,8.10
2018-05-29T01:55:40.639Z,7.90
2018-05-29T01:56:40.865Z,7.40
2018-05-29T01:57:41.096Z,7.70
2018-05-29T01:58:41.333Z,7.30
2018-05-29T01:59:41.577Z,7.10
2018-05-29T02:00:41.799Z,7.20
2018-05-29T02:01:42.025Z,8.70
2018-05-29T02:02:42.258Z,7.50
2018-05-29T02:03:42.488Z,7.80
2018-05-29T02:04:42.721Z,7.60
2018-05-29T02:05:42.952Z,7.50
2018-05-29T02:06:43.184Z,7.70
2018-05-29T02:07:43.415Z,7.40
2018-05-29T02:08:43.652Z,7.30
2018-05-29T02:09:43.882Z,8.20
2018-05-29T02:10:44.112Z,7.60
2018-05-29T02:11:44.347Z,7.60
2018-05-29T02:12:44.575Z,7.80
2018-05-29T02:13:44.804Z,8.30
2018-05-29T02:14:45.040Z,7.60
2018-05-29T02:15:45.268Z,7.30
2018-05-29T02:16:45.522Z,8.10
2018-05-29T02:17:45.731Z,7.10
2018-05-29T02:18:45.969Z,7.60
2018-05-29T02:19:46.192Z,8.10
2018-05-29T02:20:46.423Z,7.20
2018-05-29T02:21:46.656Z,7.50
2018-05-29T02:22:46.887Z,7.90
2018-05-29T02:23:47.117Z,7.60
2018-05-29T02:24:47.347Z,7.20
2018-05-29T02:25:47.580Z,7.20
2018-05-29T02:26:47.809Z,7.60
2018-05-29T02:27:48.040Z,8.10
2018-05-29T02:28:48.272Z,7.30
2018-05-29T02:29:48.507Z,7.10
2018-05-29T02:30:48.736Z,7.50
2018-05-29T02:31:48.956Z,7.20
2018-05-29T02:32:49.186Z,7.80
2018-05-29T02:33:49.414Z,7.20
2018-05-29T02:34:49.645Z,7.80
2018-05-29T02:35:49.877Z,6.50
2018-05-29T02:36:50.110Z,6.90
2018-05-29T02:37:50.345Z,7.20
2018-05-29T02:38:50.578Z,6.60
2018-05-29T02:39:50.807Z,6.60
2018-05-29T02:40:51.035Z,6.40
2018-05-29T02:41:51.267Z,6.80
2018-05-29T02:42:51.500Z,6.50
2018-05-29T02:43:51.729Z,6.60
2018-05-29T02:44:51.959Z,6.80
2018-05-29T02:45:52.194Z,7.20
2018-05-29T02:46:52.416Z,7.00
2018-05-29T02:47:52.647Z,7.30
2018-05-29T02:48:52.879Z,6.30
2018-05-29T02:49:53.107Z,6.20
2018-05-29T02:50:53.341Z,7.80
2018-05-29T02:51:53.573Z,7.90
2018-05-29T02:52:53.813Z,7.90
2018-05-29T02:53:54.044Z,7.70
2018-05-29T02:54:54.269Z,7.60
2018-05-29T02:55:54.503Z,7.50
2018-05-29T02:56:54.731Z,6.90
2018-05-29T02:57:54.963Z,7.80
2018-05-29T02:58:55.199Z,8.20
2018-05-29T02:59:55.425Z,8.00
2018-05-29T03:00:55.657Z,7.40
2018-05-29T03:01:55.888Z,7.50
2018-05-29T03:02:56.119Z,6.90
2018-05-29T03:03:56.354Z,7.90
2018-05-29T03:04:56.579Z,7.80
2018-05-29T03:05:56.820Z,7.90
2018-05-29T03:06:57.058Z,7.40
2018-05-29T03:07:57.290Z,7.60
2018-05-29T03:08:57.520Z,7.90
2018-05-29T03:09:57.749Z,7.30
2018-05-29T03:10:57.981Z,6.70
2018-05-29T03:11:58.222Z,7.40
2018-05-29T03:12:58.444Z,7.30
2018-05-29T03:13:58.677Z,7.50
2018-05-29T03:14:58.909Z,7.10
2018-05-29T03:15:59.140Z,8.10
2018-05-29T03:16:59.391Z,7.30
2018-05-29T03:17:59.608Z,7.40
2018-05-29T03:18:59.838Z,7.80
2018-05-29T03:20:00.074Z,7.60
2018-05-29T03:21:00.375Z,7.60
2018-05-29T03:22:00.534Z,7.00
2018-05-29T03:23:00.761Z,7.60
2018-05-29T03:24:00.996Z,7.40
2018-05-29T03:25:01.227Z,7.90
2018-05-29T03:26:01.454Z,7.30
2018-05-29T03:27:01.683Z,7.50
2018-05-29T03:28:01.917Z,8.10
2018-05-29T03:29:02.147Z,7.90
2018-05-29T03:30:02.376Z,7.70
2018-05-29T03:31:02.606Z,8.00
2018-05-29T03:32:02.836Z,7.60
2018-05-29T03:33:03.067Z,7.80
2018-05-29T03:34:03.298Z,7.80
2018-05-29T03:35:03.532Z,7.80
2018-05-29T03:36:03.764Z,7.60
2018-05-29T03:37:03.988Z,7.70
2018-05-29T03:38:04.220Z,7.80
2018-05-29T03:39:04.453Z,8.20
2018-05-29T03:40:04.683Z,8.40
2018-05-29T03:41:04.922Z,9.70
2018-05-29T03:42:05.142Z,11.30
2018-05-29T03:43:05.379Z,9.90
2018-05-29T03:44:05.604Z,9.00
2018-05-29T03:45:05.835Z,7.70
2018-05-29T03:46:06.067Z,8.10
2018-05-29T03:47:06.302Z,7.30
2018-05-29T03:48:06.530Z,6.80
2018-05-29T03:49:06.765Z,6.70
2018-05-29T03:50:06.997Z,7.20
2018-05-29T03:51:07.229Z,7.00
2018-05-29T03:52:07.460Z,6.90
2018-05-29T03:53:07.691Z,6.50
2018-05-29T03:54:07.923Z,6.60
2018-05-29T03:55:08.153Z,6.00
2018-05-29T03:56:08.379Z,5.90
2018-05-29T03:57:08.624Z,6.20
2018-05-29T03:58:08.845Z,6.90
2018-05-29T03:59:09.071Z,6.50
2018-05-29T04:00:09.300Z,5.90
2018-05-29T04:01:09.537Z,6.10
2018-05-29T04:02:09.762Z,6.50
2018-05-29T04:03:09.989Z,6.30
2018-05-29T04:04:10.214Z,5.90
2018-05-29T04:05:10.441Z,6.70
2018-05-29T04:06:10.673Z,5.80
2018-05-29T04:07:10.912Z,5.40
2018-05-29T04:08:11.143Z,5.70
2018-05-29T04:09:11.370Z,5.80
2018-05-29T04:10:11.600Z,6.60
2018-05-29T04:11:11.837Z,6.20
2018-05-29T04:12:12.071Z,6.80
2018-05-29T04:13:12.305Z,5.50
2018-05-29T04:14:12.537Z,6.80
2018-05-29T04:15:12.771Z,6.50
2018-05-29T04:16:13.019Z,6.30
2018-05-29T04:17:13.239Z,6.20
2018-05-29T04:18:13.478Z,6.50
2018-05-29T04:19:13.714Z,6.20
2018-05-29T04:20:13.947Z,6.30
2018-05-29T04:21:14.180Z,5.90
2018-05-29T04:22:14.418Z,5.30
2018-05-29T04:23:14.651Z,6.20
2018-05-29T04:24:14.887Z,6.20
2018-05-29T04:25:15.124Z,5.80
2018-05-29T04:26:15.359Z,5.70
2018-05-29T04:27:15.599Z,5.70
2018-05-29T04:28:15.830Z,5.30
2018-05-29T04:29:16.066Z,5.40
2018-05-29T04:30:16.301Z,5.20
2018-05-29T04:31:16.543Z,6.20
2018-05-29T04:32:16.774Z,4.80
2018-05-29T04:33:17.009Z,5.00
2018-05-29T04:34:17.250Z,6.00
2018-05-29T04:35:17.480Z,5.60
2018-05-29T04:36:17.721Z,5.10
2018-05-29T04:37:17.953Z,5.10
2018-05-29T04:38:18.189Z,5.20
2018-05-29T04:39:18.425Z,5.30
2018-05-29T04:40:18.664Z,5.80
2018-05-29T04:41:18.902Z,6.30
2018-05-29T04:42:19.139Z,5.90
2018-05-29T04:43:19.379Z,6.40
2018-05-29T04:44:19.604Z,7.60
2018-05-29T04:45:19.844Z,7.00
2018-05-29T04:46:20.082Z,6.40
2018-05-29T04:47:20.316Z,6.60
2018-05-29T04:48:20.558Z,7.00
2018-05-29T04:49:20.793Z,6.80
2018-05-29T04:50:21.059Z,6.60
2018-05-29T04:51:21.273Z,6.60
2018-05-29T04:52:21.514Z,6.30
2018-05-29T04:53:21.750Z,6.10
2018-05-29T04:54:21.989Z,6.30
2018-05-29T04:55:22.226Z,6.20
2018-05-29T04:56:22.470Z,6.10
2018-05-29T04:57:22.701Z,5.90
2018-05-29T04:58:22.940Z,5.80
2018-05-29T04:59:23.179Z,5.30
2018-05-29T05:00:23.412Z,5.20
2018-05-29T05:01:23.651Z,6.10
2018-05-29T05:02:23.893Z,5.60
2018-05-29T05:03:24.131Z,5.70
2018-05-29T05:04:24.367Z,5.80
2018-05-29T05:05:24.605Z,5.90
2018-05-29T05:06:24.848Z,5.00
2018-05-29T05:07:25.090Z,5.50
2018-05-29T05:08:25.327Z,5.50
2018-05-29T05:09:25.565Z,5.90
2018-05-29T05:10:25.808Z,5.50
2018-05-29T05:11:26.050Z,6.00
2018-05-29T05:12:26.284Z,5.90
2018-05-29T05:13:26.529Z,5.20
2018-05-29T05:14:26.758Z,5.30
2018-05-29T05:15:26.995Z,5.80
2018-05-29T05:16:27.248Z,5.40
2018-05-29T05:17:27.476Z,5.50
2018-05-29T05:18:27.715Z,5.80
2018-05-29T05:19:27.952Z,5.80
2018-05-29T05:20:28.195Z,5.90
2018-05-29T05:21:28.431Z,5.80
2018-05-29T05:22:28.666Z,5.80
2018-05-29T05:23:28.908Z,6.60
2018-05-29T05:24:29.144Z,6.10
2018-05-29T05:25:29.387Z,6.00
2018-05-29T05:26:29.627Z,5.80
2018-05-29T05:27:29.866Z,6.60
2018-05-29T05:28:30.111Z,5.60
2018-05-29T05:29:30.351Z,6.30
2018-05-29T05:30:30.590Z,5.70
2018-05-29T05:31:30.830Z,6.50
2018-05-29T05:32:31.076Z,6.70
2018-05-29T05:33:31.313Z,8.30
2018-05-29T05:34:31.552Z,7.60
2018-05-29T05:35:31.792Z,7.40
2018-05-29T05:36:32.033Z,7.30
2018-05-29T05:37:32.277Z,7.80
2018-05-29T05:38:32.564Z,6.60
2018-05-29T05:39:32.757Z,6.90
2018-05-29T05:40:32.998Z,6.20
2018-05-29T05:41:33.236Z,6.30
2018-05-29T05:42:33.475Z,6.00
2018-05-29T05:43:33.713Z,6.20
2018-05-29T05:44:33.960Z,5.80
2018-05-29T05:45:34.196Z,6.40
2018-05-29T05:46:34.437Z,5.80
2018-05-29T05:47:34.677Z,5.90
2018-05-29T05:48:34.926Z,5.90
2018-05-29T05:49:35.160Z,5.70
2018-05-29T05:50:35.399Z,6.00
2018-05-29T05:51:35.642Z,6.20
2018-05-29T05:52:35.884Z,7.00
2018-05-29T05:53:36.127Z,6.00
2018-05-29T05:54:36.367Z,6.10
2018-05-29T05:55:36.610Z,6.50
2018-05-29T05:56:36.851Z,7.10
2018-05-29T05:57:37.091Z,6.30
2018-05-29T05:58:37.333Z,6.30
2018-05-29T05:59:37.574Z,6.80
2018-05-29T06:00:37.816Z,6.60
2018-05-29T06:01:38.057Z,7.20
2018-05-29T06:02:38.299Z,6.40
2018-05-29T06:03:38.537Z,6.40
2018-05-29T06:04:38.776Z,6.20
2018-05-29T06:05:39.028Z,6.50
2018-05-29T06:06:39.264Z,6.40
2018-05-29T06:07:39.504Z,6.40
2018-05-29T06:08:39.749Z,5.90
2018-05-29T06:09:39.993Z,6.10
2018-05-29T06:10:40.233Z,5.60
2018-05-29T06:11:40.474Z,6.40
2018-05-29T06:12:40.713Z,5.40
2018-05-29T06:13:40.957Z,6.00
2018-05-29T06:14:41.204Z,5.80
2018-05-29T06:15:41.441Z,5.80
2018-05-29T06:16:41.681Z,5.70
2018-05-29T06:17:41.924Z,5.30
2018-05-29T06:18:42.170Z,5.40
2018-05-29T06:19:42.412Z,5.10
2018-05-29T06:20:42.651Z,5.50
2018-05-29T06:21:42.890Z,6.10
2018-05-29T06:22:43.131Z,5.40
2018-05-29T06:23:43.375Z,5.20
2018-05-29T06:24:43.615Z,5.30
2018-05-29T06:25:43.852Z,5.70
2018-05-29T06:26:44.093Z,5.50
2018-05-29T06:27:44.339Z,5.30
2018-05-29T06:28:44.579Z,5.10
2018-05-29T06:29:46.388Z,5.00
2018-05-29T06:30:45.004Z,5.50
2018-05-29T06:31:45.246Z,5.60
2018-05-29T06:32:45.528Z,5.90
2018-05-29T06:33:45.733Z,5.10
2018-05-29T06:34:45.973Z,5.40
2018-05-29T06:35:46.208Z,6.00
2018-05-29T06:36:46.458Z,6.30
2018-05-29T06:37:46.700Z,6.30
2018-05-29T06:38:46.991Z,5.90
2018-05-29T06:39:47.182Z,6.10
2018-05-29T06:40:47.425Z,6.20
2018-05-29T06:41:47.663Z,5.10
2018-05-29T06:42:47.902Z,5.80
2018-05-29T06:43:48.147Z,5.60
2018-05-29T06:44:48.413Z,5.40
2018-05-29T06:45:48.626Z,5.40
2018-05-29T06:46:48.868Z,5.60
2018-05-29T06:47:49.101Z,6.00
2018-05-29T06:48:49.341Z,5.50
2018-05-29T06:49:49.585Z,5.60
2018-05-29T06:50:49.828Z,5.80
2018-05-29T06:51:50.051Z,5.30
2018-05-29T06:52:50.296Z,5.00
2018-05-29T06:53:50.536Z,5.50
2018-05-29T06:54:50.779Z,5.50
2018-05-29T06:55:51.015Z,5.70
2018-05-29T06:56:51.254Z,6.00
2018-05-29T06:57:51.513Z,6.00
2018-05-29T06:58:51.742Z,6.40
2018-05-29T06:59:51.980Z,5.60
2018-05-29T07:00:52.229Z,5.80
2018-05-29T07:01:52.459Z,5.60
2018-05-29T07:02:52.704Z,5.50
2018-05-29T07:03:52.977Z,5.60
2018-05-29T07:04:53.184Z,5.40
2018-05-29T07:05:53.424Z,5.70
2018-05-29T07:06:53.662Z,5.50
2018-05-29T07:07:53.906Z,5.40
2018-05-29T07:08:54.153Z,4.90
2018-05-29T07:09:54.388Z,5.40
2018-05-29T07:10:54.628Z,4.90
2018-05-29T07:11:54.869Z,5.40
2018-05-29T07:12:55.107Z,5.90
2018-05-29T07:13:55.348Z,6.00
2018-05-29T07:14:55.590Z,5.50
2018-05-29T07:15:55.828Z,5.40
2018-05-29T07:16:56.066Z,5.20
2018-05-29T07:17:56.314Z,6.70
2018-05-29T07:18:56.546Z,5.90
2018-05-29T07:19:56.821Z,5.60
2018-05-29T07:20:57.026Z,6.10
2018-05-29T07:21:57.265Z,5.60
2018-05-29T07:22:57.506Z,5.60
2018-05-29T07:23:57.746Z,5.60
2018-05-29T07:24:57.986Z,6.20
2018-05-29T07:25:58.223Z,6.30
2018-05-29T07:26:58.468Z,6.40
2018-05-29T07:27:58.699Z,6.00
2018-05-29T07:28:58.942Z,6.00
2018-05-29T07:29:59.192Z,5.40
2018-05-29T07:30:59.416Z,5.90
2018-05-29T07:31:59.647Z,5.80
2018-05-29T07:32:59.885Z,5.70
2018-05-29T07:34:00.122Z,5.90
2018-05-29T07:35:00.361Z,5.90
2018-05-29T07:36:00.602Z,6.10
2018-05-29T07:37:00.839Z,5.90
2018-05-29T07:38:01.082Z,5.80
2018-05-29T07:39:01.315Z,6.30
2018-05-29T07:40:01.556Z,6.10
2018-05-29T07:41:01.791Z,5.70
2018-05-29T07:42:02.029Z,6.20
2018-05-29T07:43:02.276Z,6.30
2018-05-29T07:44:02.498Z,6.60
2018-05-29T07:45:02.746Z,6.40
2018-05-29T07:46:02.986Z,6.20
2018-05-29T07:47:03.225Z,6.80
2018-05-29T07:48:03.464Z,6.50
2018-05-29T07:49:03.703Z,6.40
2018-05-29T07:50:03.942Z,6.40
2018-05-29T07:51:04.176Z,7.10
2018-05-29T07:52:04.466Z,6.70
2018-05-29T07:53:04.656Z,6.80
2018-05-29T07:54:04.896Z,6.40
2018-05-29T07:55:05.133Z,6.70
2018-05-29T07:56:05.371Z,6.20
2018-05-29T07:57:05.612Z,6.50
2018-05-29T07:58:05.851Z,5.60
2018-05-29T07:59:06.091Z,6.30
2018-05-29T08:00:06.351Z,6.50
2018-05-29T08:01:06.577Z,6.50
2018-05-29T08:02:06.825Z,7.00
2018-05-29T08:03:07.061Z,6.30
2018-05-29T08:04:07.298Z,5.80
2018-05-29T08:05:07.537Z,6.30
2018-05-29T08:06:07.777Z,6.20
2018-05-29T08:07:08.015Z,6.60
2018-05-29T08:08:08.254Z,5.90
2018-05-29T08:09:08.491Z,6.10
2018-05-29T08:10:08.730Z,6.50
2018-05-29T08:11:08.968Z,6.80
2018-05-29T08:12:09.204Z,6.20
2018-05-29T08:13:09.442Z,6.10
2018-05-29T08:14:09.681Z,6.50
2018-05-29T08:15:09.919Z,6.00
2018-05-29T08:16:10.161Z,5.70
2018-05-29T08:17:10.399Z,6.10
2018-05-29T08:18:10.649Z,6.50
2018-05-29T08:19:10.872Z,6.00
2018-05-29T08:20:11.108Z,6.60
2018-05-29T08:21:11.344Z,6.40
2018-05-29T08:22:11.582Z,6.50
2018-05-29T08:23:11.821Z,7.20
2018-05-29T08:24:12.056Z,6.50
2018-05-29T08:25:12.299Z,6.30
2018-05-29T08:26:12.536Z,6.60
2018-05-29T08:27:12.777Z,6.70
2018-05-29T08:28:13.013Z,6.10
2018-05-29T08:29:13.254Z,6.50
2018-05-29T08:30:13.490Z,6.80
2018-05-29T08:31:13.729Z,6.10
2018-05-29T08:32:13.997Z,6.50
2018-05-29T08:33:14.208Z,6.50
2018-05-29T08:34:14.455Z,7.00
2018-05-29T08:35:14.687Z,6.10
2018-05-29T08:36:14.928Z,7.10
2018-05-29T08:37:15.165Z,6.40
2018-05-29T08:38:15.401Z,6.40
2018-05-29T08:39:15.640Z,6.00
2018-05-29T08:40:15.880Z,6.20
2018-05-29T08:41:16.117Z,5.80
2018-05-29T08:42:16.359Z,5.90
2018-05-29T08:43:16.601Z,6.10
2018-05-29T08:44:16.838Z,6.30
2018-05-29T08:45:17.084Z,6.10
2018-05-29T08:46:17.336Z,6.10
2018-05-29T08:47:17.557Z,6.80
2018-05-29T08:48:17.796Z,6.70
2018-05-29T08:49:18.037Z,6.50
2018-05-29T08:50:18.275Z,6.20
2018-05-29T08:51:18.516Z,6.10
2018-05-29T08:52:18.756Z,6.70
2018-05-29T08:53:18.993Z,5.80
2018-05-29T08:54:19.233Z,6.80
2018-05-29T08:55:19.470Z,6.20
2018-05-29T08:56:19.710Z,6.20
2018-05-29T08:57:19.987Z,6.60
2018-05-29T08:58:20.190Z,7.00
2018-05-29T08:59:20.433Z,6.00
2018-05-29T09:00:20.671Z,6.50
2018-05-29T09:01:20.907Z,6.50
2018-05-29T09:02:21.147Z,6.20
2018-05-29T09:03:21.392Z,6.50
2018-05-29T09:04:21.648Z,6.60
2018-05-29T09:05:21.867Z,6.40
2018-05-29T09:06:22.111Z,5.90
2018-05-29T09:07:22.375Z,6.00
2018-05-29T09:08:22.594Z,6.00
2018-05-29T09:09:22.822Z,6.20
2018-05-29T09:10:23.058Z,6.40
2018-05-29T09:11:23.294Z,6.50
2018-05-29T09:12:23.534Z,6.50
2018-05-29T09:13:23.773Z,7.10
2018-05-29T09:14:24.012Z,6.20
2018-05-29T09:15:24.251Z,5.80
2018-05-29T09:16:24.491Z,6.50
2018-05-29T09:17:24.732Z,6.40
2018-05-29T09:18:24.970Z,6.20
2018-05-29T09:19:25.210Z,6.00
2018-05-29T09:20:25.453Z,6.50
2018-05-29T09:21:25.693Z,5.90
2018-05-29T09:22:25.930Z,6.60
2018-05-29T09:23:26.170Z,6.50
2018-05-29T09:24:26.406Z,6.20
2018-05-29T09:25:26.647Z,6.00
2018-05-29T09:26:26.887Z,6.00
2018-05-29T09:27:27.123Z,5.60
2018-05-29T09:28:27.359Z,6.30
2018-05-29T09:29:27.602Z,6.20
2018-05-29T09:30:27.864Z,6.10
2018-05-29T09:31:28.098Z,6.50
2018-05-29T09:32:28.336Z,5.80
2018-05-29T09:33:28.574Z,5.90
2018-05-29T09:34:28.812Z,5.70
2018-05-29T09:35:29.056Z,5.00
2018-05-29T09:36:29.294Z,6.00
2018-05-29T09:37:29.605Z,5.60
2018-05-29T09:38:29.775Z,5.30
2018-05-29T09:39:30.015Z,5.20
2018-05-29T09:40:30.254Z,5.80
2018-05-29T09:41:30.497Z,5.60
2018-05-29T09:42:30.729Z,5.90
2018-05-29T09:43:30.973Z,5.30
2018-05-29T09:44:31.209Z,5.50
2018-05-29T09:45:31.450Z,5.80
2018-05-29T09:46:31.690Z,6.10
2018-05-29T09:47:31.931Z,5.90
2018-05-29T09:48:32.171Z,6.20
2018-05-29T09:49:32.411Z,6.10
2018-05-29T09:50:32.651Z,5.50
2018-05-29T09:51:32.894Z,5.50
2018-05-29T09:52:33.133Z,5.40
2018-05-29T09:53:33.372Z,6.10
2018-05-29T09:54:33.672Z,6.00
2018-05-29T09:55:33.851Z,5.20
2018-05-29T09:56:34.087Z,5.60
2018-05-29T09:57:34.329Z,5.50
2018-05-29T09:58:34.567Z,5.40
2018-05-29T09:59:34.808Z,5.70
2018-05-29T10:00:35.049Z,6.00
2018-05-29T10:01:35.291Z,6.60
2018-05-29T10:02:35.534Z,6.10
2018-05-29T10:03:35.767Z,7.40
2018-05-29T10:04:36.006Z,4.90
2018-05-29T10:05:36.247Z,6.00
2018-05-29T10:06:36.484Z,5.90
2018-05-29T10:07:36.724Z,6.00
2018-05-29T10:08:36.961Z,5.50
2018-05-29T10:09:37.201Z,5.80
2018-05-29T10:10:37.447Z,5.70
2018-05-29T10:11:37.681Z,5.20
2018-05-29T10:12:37.921Z,5.60
2018-05-29T10:13:38.162Z,5.10
2018-05-29T10:14:38.407Z,5.80
2018-05-29T10:15:38.639Z,5.40
2018-05-29T10:16:38.878Z,5.80
2018-05-29T10:17:39.118Z,5.70
2018-05-29T10:18:39.360Z,5.90
2018-05-29T10:19:39.596Z,5.70
2018-05-29T10:20:39.837Z,5.20
2018-05-29T10:21:40.083Z,5.60
2018-05-29T10:22:40.317Z,5.10
2018-05-29T10:23:40.552Z,5.40
2018-05-29T10:24:40.841Z,5.80
2018-05-29T10:25:41.035Z,6.20
2018-05-29T10:26:41.272Z,6.00
2018-05-29T10:27:41.510Z,5.60
2018-05-29T10:28:41.749Z,5.10
2018-05-29T10:29:41.989Z,5.70
2018-05-29T10:30:42.229Z,5.10
2018-05-29T10:31:42.468Z,5.80
2018-05-29T10:32:42.707Z,4.70
2018-05-29T10:33:42.948Z,4.80
2018-05-29T10:34:43.186Z,4.30
2018-05-29T10:35:43.424Z,4.20
2018-05-29T10:36:43.663Z,4.50
2018-05-29T10:37:43.901Z,4.30
2018-05-29T10:38:44.140Z,4.70
2018-05-29T10:39:44.380Z,5.00
2018-05-29T10:40:44.620Z,5.10
2018-05-29T10:41:44.858Z,5.30
2018-05-29T10:42:45.099Z,4.90
2018-05-29T10:43:45.336Z,4.90
2018-05-29T10:44:45.575Z,4.80
2018-05-29T10:45:45.816Z,4.00
2018-05-29T10:46:46.055Z,3.80
2018-05-29T10:47:46.295Z,4.10
2018-05-29T10:48:46.534Z,4.20
2018-05-29T10:49:46.774Z,4.60
2018-05-29T10:50:47.012Z,5.10
2018-05-29T10:51:47.253Z,4.90
2018-05-29T10:52:47.494Z,4.80
2018-05-29T10:53:47.734Z,4.80
2018-05-29T10:54:48.005Z,4.90
2018-05-29T10:55:48.210Z,5.20
2018-05-29T10:56:48.450Z,4.80
2018-05-29T10:57:48.699Z,5.10
2018-05-29T10:58:48.930Z,5.80
2018-05-29T10:59:49.173Z,5.40
2018-05-29T11:00:49.413Z,5.10
2018-05-29T11:01:49.650Z,5.50
2018-05-29T11:02:49.891Z,5.10
2018-05-29T11:03:50.132Z,5.00
2018-05-29T11:04:50.368Z,5.30
2018-05-29T11:05:50.609Z,4.90
2018-05-29T11:06:50.891Z,5.40
2018-05-29T11:07:51.106Z,5.00
2018-05-29T11:08:51.348Z,5.50
2018-05-29T11:09:51.581Z,5.40
2018-05-29T11:10:51.819Z,5.30
2018-05-29T11:11:52.065Z,5.00
2018-05-29T11:12:52.304Z,5.30
2018-05-29T11:13:52.542Z,5.00
2018-05-29T11:14:52.780Z,5.00
2018-05-29T11:15:53.020Z,5.10
2018-05-29T11:16:53.250Z,5.00
2018-05-29T11:17:53.501Z,4.60
2018-05-29T11:18:53.742Z,5.30
2018-05-29T11:19:53.980Z,5.40
2018-05-29T11:20:54.221Z,5.50
2018-05-29T11:21:54.463Z,5.50
2018-05-29T11:22:54.704Z,4.40
2018-05-29T11:23:54.943Z,5.20
2018-05-29T11:24:55.181Z,5.50
2018-05-29T11:25:55.434Z,5.20
2018-05-29T11:26:55.669Z,5.40
2018-05-29T11:27:55.912Z,5.50
2018-05-29T11:28:56.151Z,5.60
2018-05-29T11:29:56.392Z,5.40
2018-05-29T11:30:56.634Z,6.10
2018-05-29T11:31:56.875Z,6.00
2018-05-29T11:32:57.115Z,5.60
2018-05-29T11:33:57.358Z,5.60
2018-05-29T11:34:57.603Z,5.80
2018-05-29T11:35:57.837Z,4.90
2018-05-29T11:36:58.078Z,5.40
2018-05-29T11:37:58.317Z,6.10
2018-05-29T11:38:58.556Z,5.00
2018-05-29T11:39:58.795Z,5.90
2018-05-29T11:40:59.037Z,5.00
2018-05-29T11:41:59.277Z,5.40
2018-05-29T11:42:59.515Z,5.50
2018-05-29T11:43:59.759Z,5.60
2018-05-29T11:45:00.001Z,5.80
2018-05-29T11:46:00.246Z,5.40
2018-05-29T11:47:00.483Z,5.40
2018-05-29T11:48:00.721Z,5.50
2018-05-29T11:49:00.962Z,6.50
2018-05-29T11:50:01.203Z,5.10
2018-05-29T11:51:01.445Z,5.60
2018-05-29T11:52:01.698Z,5.60
2018-05-29T11:53:01.944Z,6.00
2018-05-29T11:54:02.186Z,5.80
2018-05-29T11:55:02.428Z,6.10
2018-05-29T11:56:02.675Z,6.00
2018-05-29T11:57:02.925Z,5.20
2018-05-29T11:58:03.166Z,5.60
2018-05-29T11:59:03.405Z,5.40
2018-05-29T12:00:03.659Z,5.10
2018-05-29T12:01:03.903Z,4.80
2018-05-29T12:02:04.168Z,4.90
2018-05-29T12:03:04.416Z,4.60
2018-05-29T12:04:04.661Z,5.30
2018-05-29T12:05:04.916Z,5.40
2018-05-29T12:06:05.163Z,5.20
2018-05-29T12:07:05.402Z,5.30
2018-05-29T12:08:05.643Z,5.70
2018-05-29T12:09:05.903Z,5.00
2018-05-29T12:10:06.143Z,5.70
2018-05-29T12:11:06.400Z,4.90
2018-05-29T12:12:06.639Z,5.30
2018-05-29T12:13:06.865Z,5.40
2018-05-29T12:14:07.102Z,5.30
2018-05-29T12:15:07.346Z,5.00
2018-05-29T12:16:07.586Z,4.60
2018-05-29T12:17:07.825Z,5.10
2018-05-29T12:18:08.072Z,5.00
2018-05-29T12:19:08.312Z,5.70
2018-05-29T12:20:08.551Z,4.70
2018-05-29T12:21:08.795Z,4.70
2018-05-29T12:22:09.049Z,5.20
2018-05-29T12:23:09.279Z,5.00
2018-05-29T12:24:09.533Z,4.60
2018-05-29T12:25:09.775Z,4.30
2018-05-29T12:26:10.026Z,4.80
2018-05-29T12:27:10.281Z,4.80
2018-05-29T12:28:10.520Z,4.90
2018-05-29T12:29:10.760Z,5.40
2018-05-29T12:30:11.002Z,5.10
2018-05-29T12:31:11.240Z,5.10
2018-05-29T12:32:11.484Z,4.90
2018-05-29T12:33:11.725Z,5.00
2018-05-29T12:34:11.967Z,5.70
2018-05-29T12:35:12.206Z,5.40
2018-05-29T12:36:12.463Z,4.90
2018-05-29T12:37:12.805Z,5.20
2018-05-29T12:38:12.933Z,5.50
2018-05-29T12:39:13.175Z,5.10
2018-05-29T12:40:13.421Z,5.00
2018-05-29T12:41:13.655Z,4.80
2018-05-29T12:42:13.899Z,5.90
2018-05-29T12:43:14.139Z,5.00
2018-05-29T12:44:14.438Z,4.90
2018-05-29T12:45:14.560Z,5.20
2018-05-29T12:46:14.864Z,4.90
2018-05-29T12:47:15.045Z,5.30
2018-05-29T12:48:15.286Z,5.30
2018-05-29T12:49:15.532Z,5.70
2018-05-29T12:50:15.773Z,6.90
2018-05-29T12:51:16.013Z,6.40
2018-05-29T12:52:16.263Z,6.70
2018-05-29T12:53:16.598Z,6.70
2018-05-29T12:54:16.786Z,7.00
2018-05-29T12:55:17.029Z,6.60
2018-05-29T12:56:17.280Z,6.30
2018-05-29T12:57:17.525Z,6.40
2018-05-29T12:58:17.771Z,6.70
2018-05-29T12:59:18.015Z,6.80
2018-05-29T13:00:18.265Z,6.60
2018-05-29T13:01:18.510Z,5.60
2018-05-29T13:02:18.758Z,5.20
2018-05-29T13:03:19.013Z,4.60
2018-05-29T13:04:19.252Z,4.80
2018-05-29T13:05:19.503Z,4.90
2018-05-29T13:06:19.738Z,4.00
2018-05-29T13:07:19.982Z,3.40
2018-05-29T13:08:20.318Z,3.50
2018-05-29T13:09:20.470Z,3.40
2018-05-29T13:10:20.704Z,3.30
2018-05-29T13:11:20.990Z,3.20
2018-05-29T13:12:21.232Z,3.20
2018-05-29T13:13:21.454Z,3.50
2018-05-29T13:14:21.706Z,2.90
2018-05-29T13:15:21.943Z,2.20
2018-05-29T13:16:22.190Z,2.40
2018-05-29T13:17:22.424Z,2.60
2018-05-29T13:18:22.669Z,3.20
2018-05-29T13:19:22.901Z,3.50
2018-05-29T13:20:23.139Z,2.90
2018-05-29T13:21:23.378Z,3.90